METAR ET TAF INFORMATION
METAR FOR ENSG
ADDS - METARS form results

(0823 UTC 25 June 2019)
Data provider http://aviationweather.gov/metar/data/
 
METAR text: ENSG 250750Z 07006KT 0300 -RA FG VV001 10/10 Q1025 RMK WIND 3806FT 09013KT
Conditions at: ENSG (SOGNDAL/HAUKASEN, NO) observed 0750 UTC 25 June 2019
Temperature: 10.0°C (50°F)
Dewpoint: 10.0°C (50°F) [RH = 100%]
Pressure (altimeter): 30.27 inches Hg (1025.0 mb)
Winds: from the ENE (70 degrees) at 7 MPH (6 knots; 3.1 m/s)
Visibility: 0.19 miles (0.31 km)
Ceiling: indefinite ceiling with vertical visibility of 100 feet AGL
Clouds: obscured sky
Weather: -RA FG  (light rain, fog)

 AÉROPORT DE AÉROPORT

 INFORMATIONS DE PISTE
Piste 06 Longueur de la piste 3150 ft Largeur de la piste 0 ft
Élévation de la piste 1619 ft Seuil de la piste déplacés 0 ft Runway heading 0
Piste 24 Longueur de la piste 3150 ft Largeur de la piste 0 ft
Élévation de la piste 1634 ft Seuil de la piste déplacés 0 ft Runway heading 0

 AÉROPORT FRÉQUENCES
Type AFIS Nom Sogndal Féquence 119.3 MHZ
Type INFO Nom Sogndal In Féquence 121.5 MHZ

 SIDA DE NAVIGATION
Type VOR-DME Nom Sogndal Féquence 114200 KHZ



Powered by Virtual Airlines Manager [v2.6.2]